sensor_id;sensor_type;location;lat;lon;timestamp;P1;durP1;ratioP1;P2;durP2;ratioP2
17494;SDS011;8864;51.970;4.614;2023-03-01T00:00:01;1.30;;;1.10;;
17494;SDS011;8864;51.970;4.614;2023-03-01T00:02:29;1.88;;;0.98;;
17494;SDS011;8864;51.970;4.614;2023-03-01T00:04:59;2.50;;;1.10;;
17494;SDS011;8864;51.970;4.614;2023-03-01T00:07:27;2.20;;;1.30;;
17494;SDS011;8864;51.970;4.614;2023-03-01T00:09:56;1.85;;;1.08;;
17494;SDS011;8864;51.970;4.614;2023-03-01T00:12:25;2.60;;;1.35;;
17494;SDS011;8864;51.970;4.614;2023-03-01T00:14:52;1.75;;;1.00;;
17494;SDS011;8864;51.970;4.614;2023-03-01T00:17:23;2.47;;;1.55;;
17494;SDS011;8864;51.970;4.614;2023-03-01T00:19:50;1.52;;;1.10;;
17494;SDS011;8864;51.970;4.614;2023-03-01T00:22:17;2.10;;;1.15;;
17494;SDS011;8864;51.970;4.614;2023-03-01T00:24:45;2.72;;;1.38;;
17494;SDS011;8864;51.970;4.614;2023-03-01T00:27:15;2.45;;;1.30;;
17494;SDS011;8864;51.970;4.614;2023-03-01T00:29:42;2.30;;;1.35;;
17494;SDS011;8864;51.970;4.614;2023-03-01T00:32:11;2.70;;;1.35;;
17494;SDS011;8864;51.970;4.614;2023-03-01T00:34:43;2.42;;;1.25;;
17494;SDS011;8864;51.970;4.614;2023-03-01T00:37:19;2.45;;;1.30;;
17494;SDS011;8864;51.970;4.614;2023-03-01T00:39:46;2.80;;;1.30;;
17494;SDS011;8864;51.970;4.614;2023-03-01T00:42:29;1.83;;;1.10;;
17494;SDS011;8864;51.970;4.614;2023-03-01T00:44:56;1.60;;;1.08;;
17494;SDS011;8864;51.970;4.614;2023-03-01T00:47:24;1.60;;;1.05;;
17494;SDS011;8864;51.970;4.614;2023-03-01T00:49:53;3.72;;;1.35;;
17494;SDS011;8864;51.970;4.614;2023-03-01T00:52:20;1.73;;;1.10;;
17494;SDS011;8864;51.970;4.614;2023-03-01T00:54:48;2.97;;;1.48;;
17494;SDS011;8864;51.970;4.614;2023-03-01T00:57:19;2.60;;;1.10;;
17494;SDS011;8864;51.970;4.614;2023-03-01T00:59:46;1.83;;;1.13;;
17494;SDS011;8864;51.970;4.614;2023-03-01T01:02:14;1.60;;;1.10;;
17494;SDS011;8864;51.970;4.614;2023-03-01T01:04:44;3.38;;;1.63;;
17494;SDS011;8864;51.970;4.614;2023-03-01T01:07:25;4.10;;;1.10;;
17494;SDS011;8864;51.970;4.614;2023-03-01T01:09:57;4.22;;;1.20;;
17494;SDS011;8864;51.970;4.614;2023-03-01T01:12:25;2.08;;;1.30;;
17494;SDS011;8864;51.970;4.614;2023-03-01T01:14:54;2.08;;;1.20;;
17494;SDS011;8864;51.970;4.614;2023-03-01T01:17:21;2.25;;;1.17;;
17494;SDS011;8864;51.970;4.614;2023-03-01T01:19:48;2.92;;;1.20;;
17494;SDS011;8864;51.970;4.614;2023-03-01T01:22:17;2.03;;;1.17;;
17494;SDS011;8864;51.970;4.614;2023-03-01T01:24:45;1.45;;;1.00;;
17494;SDS011;8864;51.970;4.614;2023-03-01T01:27:12;3.65;;;1.10;;
17494;SDS011;8864;51.970;4.614;2023-03-01T01:29:57;1.38;;;0.98;;
17494;SDS011;8864;51.970;4.614;2023-03-01T01:32:26;1.63;;;0.98;;
17494;SDS011;8864;51.970;4.614;2023-03-01T01:34:54;1.73;;;1.08;;
17494;SDS011;8864;51.970;4.614;2023-03-01T01:37:22;2.45;;;1.23;;
17494;SDS011;8864;51.970;4.614;2023-03-01T01:39:58;2.08;;;1.20;;
17494;SDS011;8864;51.970;4.614;2023-03-01T01:42:32;1.85;;;1.05;;
17494;SDS011;8864;51.970;4.614;2023-03-01T01:47:54;1.75;;;1.10;;
17494;SDS011;8864;51.970;4.614;2023-03-01T01:50:23;2.42;;;1.10;;
17494;SDS011;8864;51.970;4.614;2023-03-01T01:52:51;2.22;;;1.20;;
17494;SDS011;8864;51.970;4.614;2023-03-01T01:55:23;2.30;;;0.93;;
17494;SDS011;8864;51.970;4.614;2023-03-01T01:57:58;1.63;;;1.10;;
17494;SDS011;8864;51.970;4.614;2023-03-01T02:00:29;1.85;;;1.25;;
17494;SDS011;8864;51.970;4.614;2023-03-01T02:02:58;1.88;;;0.93;;
17494;SDS011;8864;51.970;4.614;2023-03-01T02:05:29;1.70;;;1.20;;
17494;SDS011;8864;51.970;4.614;2023-03-01T02:08:04;1.98;;;1.13;;
17494;SDS011;8864;51.970;4.614;2023-03-01T02:10:36;2.30;;;1.25;;
17494;SDS011;8864;51.970;4.614;2023-03-01T02:13:05;2.63;;;1.13;;
17494;SDS011;8864;51.970;4.614;2023-03-01T02:15:33;1.90;;;1.20;;
17494;SDS011;8864;51.970;4.614;2023-03-01T02:18:07;1.60;;;1.20;;
17494;SDS011;8864;51.970;4.614;2023-03-01T02:20:38;1.15;;;0.90;;
17494;SDS011;8864;51.970;4.614;2023-03-01T02:23:11;1.38;;;0.90;;
17494;SDS011;8864;51.970;4.614;2023-03-01T02:25:44;1.15;;;1.05;;
17494;SDS011;8864;51.970;4.614;2023-03-01T02:28:26;2.15;;;1.17;;
17494;SDS011;8864;51.970;4.614;2023-03-01T02:31:02;1.55;;;1.30;;
17494;SDS011;8864;51.970;4.614;2023-03-01T02:33:48;1.38;;;1.00;;
17494;SDS011;8864;51.970;4.614;2023-03-01T02:36:17;4.00;;;1.15;;
17494;SDS011;8864;51.970;4.614;2023-03-01T02:38:48;2.33;;;1.27;;
17494;SDS011;8864;51.970;4.614;2023-03-01T02:41:20;2.80;;;1.38;;
17494;SDS011;8864;51.970;4.614;2023-03-01T02:43:51;2.03;;;1.10;;
17494;SDS011;8864;51.970;4.614;2023-03-01T02:46:22;1.40;;;1.00;;
17494;SDS011;8864;51.970;4.614;2023-03-01T02:48:51;2.78;;;1.20;;
17494;SDS011;8864;51.970;4.614;2023-03-01T02:51:24;1.92;;;1.10;;
17494;SDS011;8864;51.970;4.614;2023-03-01T02:54:05;2.55;;;1.10;;
17494;SDS011;8864;51.970;4.614;2023-03-01T02:56:40;5.78;;;1.20;;
17494;SDS011;8864;51.970;4.614;2023-03-01T02:59:10;1.65;;;1.05;;
17494;SDS011;8864;51.970;4.614;2023-03-01T03:01:43;2.58;;;1.35;;
17494;SDS011;8864;51.970;4.614;2023-03-01T03:04:14;1.60;;;1.20;;
17494;SDS011;8864;51.970;4.614;2023-03-01T03:06:51;1.50;;;1.05;;
17494;SDS011;8864;51.970;4.614;2023-03-01T03:09:18;1.85;;;1.05;;
17494;SDS011;8864;51.970;4.614;2023-03-01T03:11:45;2.10;;;1.00;;
17494;SDS011;8864;51.970;4.614;2023-03-01T03:14:15;2.20;;;1.17;;
17494;SDS011;8864;51.970;4.614;2023-03-01T03:16:47;3.15;;;1.10;;
17494;SDS011;8864;51.970;4.614;2023-03-01T03:19:16;4.30;;;1.33;;
17494;SDS011;8864;51.970;4.614;2023-03-01T03:21:46;1.70;;;1.00;;
17494;SDS011;8864;51.970;4.614;2023-03-01T03:24:17;2.55;;;1.10;;
17494;SDS011;8864;51.970;4.614;2023-03-01T03:26:44;1.70;;;1.10;;
17494;SDS011;8864;51.970;4.614;2023-03-01T03:29:11;2.33;;;0.98;;
17494;SDS011;8864;51.970;4.614;2023-03-01T03:31:39;1.23;;;0.90;;
17494;SDS011;8864;51.970;4.614;2023-03-01T03:34:06;1.85;;;1.10;;
17494;SDS011;8864;51.970;4.614;2023-03-01T03:36:42;1.60;;;1.30;;
17494;SDS011;8864;51.970;4.614;2023-03-01T03:39:09;2.30;;;1.00;;
17494;SDS011;8864;51.970;4.614;2023-03-01T03:41:36;1.55;;;1.08;;
17494;SDS011;8864;51.970;4.614;2023-03-01T03:44:03;1.42;;;1.15;;
17494;SDS011;8864;51.970;4.614;2023-03-01T03:46:33;1.65;;;1.20;;
17494;SDS011;8864;51.970;4.614;2023-03-01T03:49:03;1.80;;;0.98;;
17494;SDS011;8864;51.970;4.614;2023-03-01T03:51:34;2.75;;;1.00;;
17494;SDS011;8864;51.970;4.614;2023-03-01T03:54:03;1.40;;;1.02;;
17494;SDS011;8864;51.970;4.614;2023-03-01T03:56:35;2.47;;;1.00;;
17494;SDS011;8864;51.970;4.614;2023-03-01T03:59:03;2.50;;;1.40;;
17494;SDS011;8864;51.970;4.614;2023-03-01T04:01:34;2.85;;;1.35;;
17494;SDS011;8864;51.970;4.614;2023-03-01T04:04:03;2.30;;;1.40;;
17494;SDS011;8864;51.970;4.614;2023-03-01T04:06:33;1.52;;;1.05;;
17494;SDS011;8864;51.970;4.614;2023-03-01T04:09:00;2.00;;;1.10;;
17494;SDS011;8864;51.970;4.614;2023-03-01T04:11:28;3.30;;;1.20;;
17494;SDS011;8864;51.970;4.614;2023-03-01T04:13:56;2.20;;;1.20;;
17494;SDS011;8864;51.970;4.614;2023-03-01T04:16:25;2.17;;;1.23;;
17494;SDS011;8864;51.970;4.614;2023-03-01T04:18:52;1.23;;;1.00;;
17494;SDS011;8864;51.970;4.614;2023-03-01T04:21:21;2.55;;;1.20;;
17494;SDS011;8864;51.970;4.614;2023-03-01T04:23:48;1.75;;;1.20;;
17494;SDS011;8864;51.970;4.614;2023-03-01T04:26:20;1.50;;;1.30;;
17494;SDS011;8864;51.970;4.614;2023-03-01T04:28:48;1.10;;;1.00;;
17494;SDS011;8864;51.970;4.614;2023-03-01T04:31:18;1.63;;;1.10;;
17494;SDS011;8864;51.970;4.614;2023-03-01T04:33:46;1.92;;;1.20;;
17494;SDS011;8864;51.970;4.614;2023-03-01T04:36:15;1.55;;;1.05;;
17494;SDS011;8864;51.970;4.614;2023-03-01T04:38:45;2.08;;;1.35;;
17494;SDS011;8864;51.970;4.614;2023-03-01T04:41:14;1.75;;;1.00;;
17494;SDS011;8864;51.970;4.614;2023-03-01T04:43:42;2.53;;;1.20;;
17494;SDS011;8864;51.970;4.614;2023-03-01T04:46:18;2.42;;;1.05;;
17494;SDS011;8864;51.970;4.614;2023-03-01T04:48:46;3.00;;;1.40;;
17494;SDS011;8864;51.970;4.614;2023-03-01T04:51:13;3.17;;;1.17;;
17494;SDS011;8864;51.970;4.614;2023-03-01T04:53:41;2.28;;;1.45;;
17494;SDS011;8864;51.970;4.614;2023-03-01T04:56:18;1.10;;;0.93;;
17494;SDS011;8864;51.970;4.614;2023-03-01T04:58:48;2.70;;;1.20;;
17494;SDS011;8864;51.970;4.614;2023-03-01T05:01:17;1.17;;;0.90;;
17494;SDS011;8864;51.970;4.614;2023-03-01T05:03:52;1.65;;;1.10;;
17494;SDS011;8864;51.970;4.614;2023-03-01T05:06:27;1.58;;;0.93;;
17494;SDS011;8864;51.970;4.614;2023-03-01T05:08:55;1.90;;;1.00;;
17494;SDS011;8864;51.970;4.614;2023-03-01T05:11:24;1.35;;;1.00;;
17494;SDS011;8864;51.970;4.614;2023-03-01T05:13:54;2.35;;;1.00;;
17494;SDS011;8864;51.970;4.614;2023-03-01T05:16:23;2.25;;;1.05;;
17494;SDS011;8864;51.970;4.614;2023-03-01T05:18:50;1.20;;;0.98;;
17494;SDS011;8864;51.970;4.614;2023-03-01T05:21:17;1.02;;;0.90;;
17494;SDS011;8864;51.970;4.614;2023-03-01T05:23:44;1.60;;;1.10;;
17494;SDS011;8864;51.970;4.614;2023-03-01T05:26:12;1.70;;;1.00;;
17494;SDS011;8864;51.970;4.614;2023-03-01T05:28:48;1.30;;;1.00;;
17494;SDS011;8864;51.970;4.614;2023-03-01T05:31:15;1.60;;;1.25;;
17494;SDS011;8864;51.970;4.614;2023-03-01T05:33:47;2.88;;;0.90;;
17494;SDS011;8864;51.970;4.614;2023-03-01T05:36:16;1.65;;;0.90;;
17494;SDS011;8864;51.970;4.614;2023-03-01T05:38:43;1.63;;;1.02;;
17494;SDS011;8864;51.970;4.614;2023-03-01T05:41:13;2.25;;;1.08;;
17494;SDS011;8864;51.970;4.614;2023-03-01T05:43:43;2.30;;;1.20;;
17494;SDS011;8864;51.970;4.614;2023-03-01T05:46:12;1.80;;;0.88;;
17494;SDS011;8864;51.970;4.614;2023-03-01T05:48:41;1.48;;;0.93;;
17494;SDS011;8864;51.970;4.614;2023-03-01T05:51:08;1.02;;;0.90;;
17494;SDS011;8864;51.970;4.614;2023-03-01T05:53:37;2.95;;;1.00;;
17494;SDS011;8864;51.970;4.614;2023-03-01T05:56:07;5.22;;;0.98;;
17494;SDS011;8864;51.970;4.614;2023-03-01T05:58:38;1.27;;;0.82;;
17494;SDS011;8864;51.970;4.614;2023-03-01T06:01:10;2.10;;;1.13;;
17494;SDS011;8864;51.970;4.614;2023-03-01T06:03:39;1.55;;;1.00;;
17494;SDS011;8864;51.970;4.614;2023-03-01T06:06:06;1.88;;;1.10;;
17494;SDS011;8864;51.970;4.614;2023-03-01T06:08:33;1.10;;;0.95;;
17494;SDS011;8864;51.970;4.614;2023-03-01T06:11:03;1.17;;;0.90;;
17494;SDS011;8864;51.970;4.614;2023-03-01T06:13:30;1.58;;;1.10;;
17494;SDS011;8864;51.970;4.614;2023-03-01T06:15:57;1.33;;;1.00;;
17494;SDS011;8864;51.970;4.614;2023-03-01T06:18:26;1.60;;;1.10;;
17494;SDS011;8864;51.970;4.614;2023-03-01T06:20:55;2.35;;;1.10;;
17494;SDS011;8864;51.970;4.614;2023-03-01T06:23:23;1.65;;;0.98;;
17494;SDS011;8864;51.970;4.614;2023-03-01T06:25:51;1.48;;;1.00;;
17494;SDS011;8864;51.970;4.614;2023-03-01T06:28:21;1.13;;;1.00;;
17494;SDS011;8864;51.970;4.614;2023-03-01T06:30:50;1.52;;;1.02;;
17494;SDS011;8864;51.970;4.614;2023-03-01T06:33:20;1.42;;;0.95;;
17494;SDS011;8864;51.970;4.614;2023-03-01T06:35:50;3.30;;;1.10;;
17494;SDS011;8864;51.970;4.614;2023-03-01T06:38:20;2.53;;;0.88;;
17494;SDS011;8864;51.970;4.614;2023-03-01T06:40:51;3.60;;;1.40;;
17494;SDS011;8864;51.970;4.614;2023-03-01T06:43:21;2.25;;;1.10;;
17494;SDS011;8864;51.970;4.614;2023-03-01T06:45:50;4.13;;;1.23;;
17494;SDS011;8864;51.970;4.614;2023-03-01T06:48:17;7.43;;;2.03;;
17494;SDS011;8864;51.970;4.614;2023-03-01T06:50:49;1.60;;;1.25;;
17494;SDS011;8864;51.970;4.614;2023-03-01T06:53:23;2.83;;;1.45;;
17494;SDS011;8864;51.970;4.614;2023-03-01T06:55:55;2.25;;;1.55;;
17494;SDS011;8864;51.970;4.614;2023-03-01T06:58:22;8.20;;;1.92;;
17494;SDS011;8864;51.970;4.614;2023-03-01T07:00:50;2.65;;;1.60;;
17494;SDS011;8864;51.970;4.614;2023-03-01T07:03:19;4.25;;;1.80;;
17494;SDS011;8864;51.970;4.614;2023-03-01T07:05:50;2.63;;;1.80;;
17494;SDS011;8864;51.970;4.614;2023-03-01T07:08:28;2.63;;;1.70;;
17494;SDS011;8864;51.970;4.614;2023-03-01T07:10:56;1.92;;;1.48;;
17494;SDS011;8864;51.970;4.614;2023-03-01T07:13:23;2.75;;;1.38;;
17494;SDS011;8864;51.970;4.614;2023-03-01T07:15:51;2.08;;;1.60;;
17494;SDS011;8864;51.970;4.614;2023-03-01T07:18:26;2.70;;;1.70;;
17494;SDS011;8864;51.970;4.614;2023-03-01T07:20:53;2.05;;;1.70;;
17494;SDS011;8864;51.970;4.614;2023-03-01T07:23:22;2.63;;;1.55;;
17494;SDS011;8864;51.970;4.614;2023-03-01T07:25:52;3.08;;;1.80;;
17494;SDS011;8864;51.970;4.614;2023-03-01T07:28:20;4.70;;;1.58;;
17494;SDS011;8864;51.970;4.614;2023-03-01T07:30:48;2.50;;;1.90;;
17494;SDS011;8864;51.970;4.614;2023-03-01T07:33:18;3.65;;;1.98;;
17494;SDS011;8864;51.970;4.614;2023-03-01T07:35:45;3.63;;;2.10;;
17494;SDS011;8864;51.970;4.614;2023-03-01T07:38:22;2.38;;;1.63;;
17494;SDS011;8864;51.970;4.614;2023-03-01T07:40:50;2.85;;;1.98;;
17494;SDS011;8864;51.970;4.614;2023-03-01T07:43:17;2.55;;;1.77;;
17494;SDS011;8864;51.970;4.614;2023-03-01T07:45:45;3.30;;;2.30;;
17494;SDS011;8864;51.970;4.614;2023-03-01T07:48:17;5.00;;;2.30;;
17494;SDS011;8864;51.970;4.614;2023-03-01T07:50:44;5.88;;;2.35;;
17494;SDS011;8864;51.970;4.614;2023-03-01T07:53:11;13.02;;;2.20;;
17494;SDS011;8864;51.970;4.614;2023-03-01T07:55:39;5.10;;;2.50;;
17494;SDS011;8864;51.970;4.614;2023-03-01T07:58:09;87.72;;;14.57;;
17494;SDS011;8864;51.970;4.614;2023-03-01T08:00:37;178.05;;;27.50;;
17494;SDS011;8864;51.970;4.614;2023-03-01T08:03:08;83.32;;;14.32;;
17494;SDS011;8864;51.970;4.614;2023-03-01T08:05:35;60.95;;;10.05;;
17494;SDS011;8864;51.970;4.614;2023-03-01T08:08:03;70.07;;;12.35;;
17494;SDS011;8864;51.970;4.614;2023-03-01T08:10:34;66.97;;;10.98;;
17494;SDS011;8864;51.970;4.614;2023-03-01T08:13:06;76.85;;;11.10;;
17494;SDS011;8864;51.970;4.614;2023-03-01T08:15:35;54.35;;;10.25;;
17494;SDS011;8864;51.970;4.614;2023-03-01T08:18:02;56.72;;;10.80;;
17494;SDS011;8864;51.970;4.614;2023-03-01T08:20:29;39.25;;;7.63;;
17494;SDS011;8864;51.970;4.614;2023-03-01T08:23:03;43.30;;;7.97;;
17494;SDS011;8864;51.970;4.614;2023-03-01T08:25:33;42.60;;;8.45;;
17494;SDS011;8864;51.970;4.614;2023-03-01T08:28:06;46.28;;;8.07;;
17494;SDS011;8864;51.970;4.614;2023-03-01T08:30:33;33.42;;;7.00;;
17494;SDS011;8864;51.970;4.614;2023-03-01T08:33:01;37.13;;;7.35;;
17494;SDS011;8864;51.970;4.614;2023-03-01T08:35:29;32.22;;;6.65;;
17494;SDS011;8864;51.970;4.614;2023-03-01T08:37:59;45.33;;;8.13;;
17494;SDS011;8864;51.970;4.614;2023-03-01T08:40:26;30.02;;;6.32;;
17494;SDS011;8864;51.970;4.614;2023-03-01T08:42:53;34.85;;;5.82;;
17494;SDS011;8864;51.970;4.614;2023-03-01T08:45:21;24.20;;;5.72;;
17494;SDS011;8864;51.970;4.614;2023-03-01T08:47:53;23.20;;;5.90;;
17494;SDS011;8864;51.970;4.614;2023-03-01T08:50:21;22.33;;;5.10;;
17494;SDS011;8864;51.970;4.614;2023-03-01T08:52:49;28.35;;;6.32;;
17494;SDS011;8864;51.970;4.614;2023-03-01T08:55:18;27.33;;;5.50;;
17494;SDS011;8864;51.970;4.614;2023-03-01T08:57:48;20.90;;;5.43;;
17494;SDS011;8864;51.970;4.614;2023-03-01T09:00:15;22.30;;;5.00;;
17494;SDS011;8864;51.970;4.614;2023-03-01T09:02:45;24.35;;;4.93;;
17494;SDS011;8864;51.970;4.614;2023-03-01T09:05:13;19.98;;;5.20;;
17494;SDS011;8864;51.970;4.614;2023-03-01T09:07:40;21.92;;;4.57;;
17494;SDS011;8864;51.970;4.614;2023-03-01T09:10:10;16.63;;;4.70;;
17494;SDS011;8864;51.970;4.614;2023-03-01T09:12:37;14.98;;;4.15;;
17494;SDS011;8864;51.970;4.614;2023-03-01T09:15:04;19.30;;;4.03;;
17494;SDS011;8864;51.970;4.614;2023-03-01T09:17:32;14.20;;;4.05;;
17494;SDS011;8864;51.970;4.614;2023-03-01T09:20:00;12.40;;;3.85;;
17494;SDS011;8864;51.970;4.614;2023-03-01T09:22:35;17.40;;;4.55;;
17494;SDS011;8864;51.970;4.614;2023-03-01T09:25:02;13.45;;;3.97;;
17494;SDS011;8864;51.970;4.614;2023-03-01T09:27:29;11.82;;;3.38;;
17494;SDS011;8864;51.970;4.614;2023-03-01T09:29:56;12.43;;;3.17;;
17494;SDS011;8864;51.970;4.614;2023-03-01T09:32:23;11.00;;;3.00;;
17494;SDS011;8864;51.970;4.614;2023-03-01T09:34:50;11.68;;;3.10;;
17494;SDS011;8864;51.970;4.614;2023-03-01T09:37:36;13.82;;;3.08;;
17494;SDS011;8864;51.970;4.614;2023-03-01T09:40:05;13.48;;;3.40;;
17494;SDS011;8864;51.970;4.614;2023-03-01T09:42:45;9.27;;;2.88;;
17494;SDS011;8864;51.970;4.614;2023-03-01T09:45:21;12.35;;;3.33;;
17494;SDS011;8864;51.970;4.614;2023-03-01T09:47:57;9.43;;;2.97;;
17494;SDS011;8864;51.970;4.614;2023-03-01T09:50:26;10.35;;;3.30;;
17494;SDS011;8864;51.970;4.614;2023-03-01T09:53:01;12.32;;;2.88;;
17494;SDS011;8864;51.970;4.614;2023-03-01T09:55:37;9.48;;;3.30;;
17494;SDS011;8864;51.970;4.614;2023-03-01T09:58:17;10.50;;;2.95;;
17494;SDS011;8864;51.970;4.614;2023-03-01T10:01:02;9.45;;;2.75;;
17494;SDS011;8864;51.970;4.614;2023-03-01T10:03:41;7.82;;;2.15;;
17494;SDS011;8864;51.970;4.614;2023-03-01T10:06:26;9.95;;;2.20;;
17494;SDS011;8864;51.970;4.614;2023-03-01T10:08:54;7.00;;;2.08;;
17494;SDS011;8864;51.970;4.614;2023-03-01T10:11:26;7.90;;;2.25;;
17494;SDS011;8864;51.970;4.614;2023-03-01T10:13:59;7.10;;;2.42;;
17494;SDS011;8864;51.970;4.614;2023-03-01T10:16:43;6.72;;;2.78;;
17494;SDS011;8864;51.970;4.614;2023-03-01T10:19:16;20.70;;;3.03;;
17494;SDS011;8864;51.970;4.614;2023-03-01T10:21:51;10.73;;;2.50;;
17494;SDS011;8864;51.970;4.614;2023-03-01T10:24:22;8.80;;;2.42;;
17494;SDS011;8864;51.970;4.614;2023-03-01T10:26:52;8.23;;;2.20;;
17494;SDS011;8864;51.970;4.614;2023-03-01T10:29:25;7.93;;;2.30;;
17494;SDS011;8864;51.970;4.614;2023-03-01T10:31:59;8.70;;;2.63;;
17494;SDS011;8864;51.970;4.614;2023-03-01T10:34:27;5.10;;;2.38;;
17494;SDS011;8864;51.970;4.614;2023-03-01T10:36:57;7.18;;;2.33;;
17494;SDS011;8864;51.970;4.614;2023-03-01T10:39:37;4.00;;;2.20;;
17494;SDS011;8864;51.970;4.614;2023-03-01T10:42:31;4.95;;;1.92;;
17494;SDS011;8864;51.970;4.614;2023-03-01T10:45:14;4.53;;;2.15;;
17494;SDS011;8864;51.970;4.614;2023-03-01T10:47:42;4.85;;;2.00;;
17494;SDS011;8864;51.970;4.614;2023-03-01T10:50:18;5.53;;;2.60;;
17494;SDS011;8864;51.970;4.614;2023-03-01T10:52:55;5.47;;;2.00;;
17494;SDS011;8864;51.970;4.614;2023-03-01T10:55:29;7.15;;;2.13;;
17494;SDS011;8864;51.970;4.614;2023-03-01T10:58:06;4.00;;;2.22;;
17494;SDS011;8864;51.970;4.614;2023-03-01T11:00:48;4.68;;;1.95;;
17494;SDS011;8864;51.970;4.614;2023-03-01T11:03:19;5.43;;;2.20;;
17494;SDS011;8864;51.970;4.614;2023-03-01T11:05:51;6.18;;;2.17;;
17494;SDS011;8864;51.970;4.614;2023-03-01T11:08:40;5.88;;;2.45;;
17494;SDS011;8864;51.970;4.614;2023-03-01T11:13:59;4.65;;;2.10;;
17494;SDS011;8864;51.970;4.614;2023-03-01T11:16:34;4.53;;;2.00;;
17494;SDS011;8864;51.970;4.614;2023-03-01T11:19:17;6.15;;;2.22;;
17494;SDS011;8864;51.970;4.614;2023-03-01T11:21:58;4.90;;;1.98;;
17494;SDS011;8864;51.970;4.614;2023-03-01T11:24:31;8.32;;;2.22;;
17494;SDS011;8864;51.970;4.614;2023-03-01T11:27:12;5.68;;;2.80;;
17494;SDS011;8864;51.970;4.614;2023-03-01T11:29:46;4.95;;;2.60;;
17494;SDS011;8864;51.970;4.614;2023-03-01T11:32:19;4.18;;;2.40;;
17494;SDS011;8864;51.970;4.614;2023-03-01T11:34:51;4.88;;;2.47;;
17494;SDS011;8864;51.970;4.614;2023-03-01T11:37:26;4.90;;;2.53;;
17494;SDS011;8864;51.970;4.614;2023-03-01T11:40:02;5.00;;;2.38;;
17494;SDS011;8864;51.970;4.614;2023-03-01T11:42:42;5.15;;;2.45;;
17494;SDS011;8864;51.970;4.614;2023-03-01T11:45:18;4.78;;;2.25;;
17494;SDS011;8864;51.970;4.614;2023-03-01T11:47:51;4.05;;;2.00;;
17494;SDS011;8864;51.970;4.614;2023-03-01T11:50:29;5.00;;;2.53;;
17494;SDS011;8864;51.970;4.614;2023-03-01T11:53:07;4.03;;;2.22;;
17494;SDS011;8864;51.970;4.614;2023-03-01T11:55:57;5.00;;;2.15;;
17494;SDS011;8864;51.970;4.614;2023-03-01T11:58:41;3.75;;;2.03;;
17494;SDS011;8864;51.970;4.614;2023-03-01T12:01:32;3.72;;;1.90;;
17494;SDS011;8864;51.970;4.614;2023-03-01T12:04:29;7.43;;;2.67;;
17494;SDS011;8864;51.970;4.614;2023-03-01T12:07:19;3.95;;;2.10;;
17494;SDS011;8864;51.970;4.614;2023-03-01T12:10:04;4.28;;;1.98;;
17494;SDS011;8864;51.970;4.614;2023-03-01T12:18:34;4.72;;;1.80;;
17494;SDS011;8864;51.970;4.614;2023-03-01T12:21:14;5.95;;;1.55;;
17494;SDS011;8864;51.970;4.614;2023-03-01T12:23:56;2.53;;;1.30;;
17494;SDS011;8864;51.970;4.614;2023-03-01T12:26:39;3.38;;;1.23;;
17494;SDS011;8864;51.970;4.614;2023-03-01T12:29:24;7.07;;;1.83;;
17494;SDS011;8864;51.970;4.614;2023-03-01T12:38:05;1.60;;;1.10;;
17494;SDS011;8864;51.970;4.614;2023-03-01T12:40:46;2.83;;;1.08;;
17494;SDS011;8864;51.970;4.614;2023-03-01T12:43:40;17.55;;;1.52;;
17494;SDS011;8864;51.970;4.614;2023-03-01T12:46:21;3.58;;;1.20;;
17494;SDS011;8864;51.970;4.614;2023-03-01T12:49:21;2.90;;;1.02;;
17494;SDS011;8864;51.970;4.614;2023-03-01T12:51:56;2.50;;;1.10;;
17494;SDS011;8864;51.970;4.614;2023-03-01T12:54:33;5.72;;;1.45;;
17494;SDS011;8864;51.970;4.614;2023-03-01T12:57:06;1.83;;;1.05;;
17494;SDS011;8864;51.970;4.614;2023-03-01T12:59:39;2.95;;;1.30;;
17494;SDS011;8864;51.970;4.614;2023-03-01T13:02:15;3.60;;;0.85;;
17494;SDS011;8864;51.970;4.614;2023-03-01T13:04:57;1.67;;;0.85;;
17494;SDS011;8864;51.970;4.614;2023-03-01T13:07:35;3.15;;;0.90;;
17494;SDS011;8864;51.970;4.614;2023-03-01T13:10:14;1.33;;;0.90;;
17494;SDS011;8864;51.970;4.614;2023-03-01T13:12:51;2.83;;;1.02;;
17494;SDS011;8864;51.970;4.614;2023-03-01T13:15:32;1.98;;;0.93;;
17494;SDS011;8864;51.970;4.614;2023-03-01T13:18:11;1.88;;;0.95;;
17494;SDS011;8864;51.970;4.614;2023-03-01T13:21:07;2.58;;;0.82;;
17494;SDS011;8864;51.970;4.614;2023-03-01T13:23:38;1.15;;;0.77;;
17494;SDS011;8864;51.970;4.614;2023-03-01T13:26:14;3.88;;;0.85;;
17494;SDS011;8864;51.970;4.614;2023-03-01T13:34:41;2.50;;;0.82;;
17494;SDS011;8864;51.970;4.614;2023-03-01T13:37:24;3.63;;;0.90;;
17494;SDS011;8864;51.970;4.614;2023-03-01T13:40:03;2.58;;;1.00;;
17494;SDS011;8864;51.970;4.614;2023-03-01T13:42:55;1.40;;;0.70;;
17494;SDS011;8864;51.970;4.614;2023-03-01T13:45:24;1.58;;;0.70;;
17494;SDS011;8864;51.970;4.614;2023-03-01T13:48:08;2.10;;;0.80;;
17494;SDS011;8864;51.970;4.614;2023-03-01T13:50:43;0.93;;;0.68;;
17494;SDS011;8864;51.970;4.614;2023-03-01T13:53:18;1.98;;;0.88;;
17494;SDS011;8864;51.970;4.614;2023-03-01T13:55:47;1.92;;;0.93;;
17494;SDS011;8864;51.970;4.614;2023-03-01T13:58:23;3.30;;;0.80;;
17494;SDS011;8864;51.970;4.614;2023-03-01T14:00:55;1.23;;;0.80;;
17494;SDS011;8864;51.970;4.614;2023-03-01T14:03:30;1.90;;;0.70;;
17494;SDS011;8864;51.970;4.614;2023-03-01T14:06:03;4.88;;;0.80;;
17494;SDS011;8864;51.970;4.614;2023-03-01T14:08:34;1.20;;;0.63;;
17494;SDS011;8864;51.970;4.614;2023-03-01T14:14:24;1.38;;;0.93;;
17494;SDS011;8864;51.970;4.614;2023-03-01T14:17:16;2.47;;;0.80;;
17494;SDS011;8864;51.970;4.614;2023-03-01T14:20:08;1.90;;;0.60;;
17494;SDS011;8864;51.970;4.614;2023-03-01T14:22:38;1.15;;;0.82;;
17494;SDS011;8864;51.970;4.614;2023-03-01T14:25:16;3.20;;;0.88;;
17494;SDS011;8864;51.970;4.614;2023-03-01T14:27:50;1.08;;;0.63;;
17494;SDS011;8864;51.970;4.614;2023-03-01T14:30:25;1.30;;;0.73;;
17494;SDS011;8864;51.970;4.614;2023-03-01T14:32:57;0.73;;;0.70;;
17494;SDS011;8864;51.970;4.614;2023-03-01T14:35:28;2.17;;;0.82;;
17494;SDS011;8864;51.970;4.614;2023-03-01T14:38:01;0.95;;;0.68;;
17494;SDS011;8864;51.970;4.614;2023-03-01T14:40:38;1.92;;;0.80;;
17494;SDS011;8864;51.970;4.614;2023-03-01T14:43:09;1.17;;;0.75;;
17494;SDS011;8864;51.970;4.614;2023-03-01T14:45:39;0.90;;;0.70;;
17494;SDS011;8864;51.970;4.614;2023-03-01T14:48:17;2.90;;;1.00;;
17494;SDS011;8864;51.970;4.614;2023-03-01T14:50:48;2.22;;;1.00;;
17494;SDS011;8864;51.970;4.614;2023-03-01T14:53:20;1.20;;;0.82;;
17494;SDS011;8864;51.970;4.614;2023-03-01T14:55:52;1.33;;;0.70;;
17494;SDS011;8864;51.970;4.614;2023-03-01T14:58:25;2.47;;;1.15;;
17494;SDS011;8864;51.970;4.614;2023-03-01T15:00:54;3.10;;;0.75;;
17494;SDS011;8864;51.970;4.614;2023-03-01T15:03:30;0.98;;;0.63;;
17494;SDS011;8864;51.970;4.614;2023-03-01T15:06:16;4.95;;;0.73;;
17494;SDS011;8864;51.970;4.614;2023-03-01T15:08:54;2.22;;;0.70;;
17494;SDS011;8864;51.970;4.614;2023-03-01T15:11:23;1.55;;;0.90;;
17494;SDS011;8864;51.970;4.614;2023-03-01T15:13:53;4.38;;;0.80;;
17494;SDS011;8864;51.970;4.614;2023-03-01T15:16:25;4.07;;;0.75;;
17494;SDS011;8864;51.970;4.614;2023-03-01T15:18:58;3.78;;;0.70;;
17494;SDS011;8864;51.970;4.614;2023-03-01T15:21:37;1.90;;;0.82;;
17494;SDS011;8864;51.970;4.614;2023-03-01T15:24:17;3.38;;;0.73;;
17494;SDS011;8864;51.970;4.614;2023-03-01T15:26:51;5.43;;;0.98;;
17494;SDS011;8864;51.970;4.614;2023-03-01T15:29:32;4.32;;;0.90;;
17494;SDS011;8864;51.970;4.614;2023-03-01T15:32:25;2.65;;;0.93;;
17494;SDS011;8864;51.970;4.614;2023-03-01T15:38:26;4.18;;;1.00;;
17494;SDS011;8864;51.970;4.614;2023-03-01T15:40:57;2.33;;;0.70;;
17494;SDS011;8864;51.970;4.614;2023-03-01T15:46:16;2.38;;;0.68;;
17494;SDS011;8864;51.970;4.614;2023-03-01T15:51:32;2.25;;;0.68;;
17494;SDS011;8864;51.970;4.614;2023-03-01T15:54:05;1.80;;;0.77;;
17494;SDS011;8864;51.970;4.614;2023-03-01T15:56:45;3.92;;;1.08;;
17494;SDS011;8864;51.970;4.614;2023-03-01T15:59:16;5.07;;;0.98;;
17494;SDS011;8864;51.970;4.614;2023-03-01T16:01:48;2.95;;;0.90;;
17494;SDS011;8864;51.970;4.614;2023-03-01T16:04:21;3.00;;;0.73;;
17494;SDS011;8864;51.970;4.614;2023-03-01T16:06:55;2.65;;;0.85;;